Time;durP1;ratioP1;P1;durP2;ratioP2;P2;SDS_P1;SDS_P2;PMS_P1;PMS_P2;Temp;Humidity;BMP_temperature;BMP_pressure;BME280_temperature;BME280_humidity;BME280_pressure;Samples;Min_cycle;Max_cycle;Signal;HPM_P1;HPM_P2
2024/02/22 00:00:26;;;;;;;8.20;1.30;;;13.00;63.60;;;;;;5101769;28;21300;-70
2024/02/22 00:02:54;;;;;;;6.50;1.07;;;13.10;63.60;;;;;;5100324;27;20520;-69
2024/02/22 00:05:22;;;;;;;11.83;1.70;;;13.10;64.10;;;;;;5106109;28;20460;-68
2024/02/22 00:07:51;;;;;;;10.80;1.40;;;13.00;64.40;;;;;;5100234;28;20432;-70
2024/02/22 00:10:19;;;;;;;6.97;1.33;;;13.00;66.10;;;;;;5101913;28;20441;-71
2024/02/22 00:12:47;;;;;;;7.30;1.30;;;12.90;67.40;;;;;;5108750;28;20446;-70
2024/02/22 00:15:16;;;;;;;8.80;1.30;;;12.80;68.30;;;;;;5097604;28;20470;-68
2024/02/22 00:17:44;;;;;;;7.93;1.47;;;12.70;68.60;;;;;;5094314;28;20478;-68
2024/02/22 00:20:16;;;;;;;8.80;1.50;;;12.70;69.30;;;;;;5108846;28;20511;-69
2024/02/22 00:22:44;;;;;;;7.97;1.70;;;12.60;69.50;;;;;;5109261;28;20437;-69
2024/02/22 00:25:12;;;;;;;10.13;1.53;;;12.60;70.10;;;;;;5103869;28;20465;-69
2024/02/22 00:27:41;;;;;;;7.00;1.37;;;12.50;70.30;;;;;;5108786;28;20438;-69
2024/02/22 00:30:12;;;;;;;6.87;1.40;;;12.50;70.40;;;;;;5108412;28;20484;-69
2024/02/22 00:32:42;;;;;;;7.30;1.40;;;12.40;71.10;;;;;;5108262;28;20533;-72
2024/02/22 00:35:11;;;;;;;7.40;1.33;;;12.40;71.80;;;;;;5107211;28;20497;-70
2024/02/22 00:37:39;;;;;;;6.90;1.57;;;12.30;71.30;;;;;;5102041;28;20509;-69
2024/02/22 00:40:09;;;;;;;9.20;1.63;;;12.30;71.90;;;;;;5096900;28;20477;-70
2024/02/22 00:42:37;;;;;;;7.23;1.40;;;12.30;72.10;;;;;;5107770;28;20479;-69
2024/02/22 00:45:06;;;;;;;8.77;1.70;;;12.30;71.60;;;;;;5106865;28;20496;-69
2024/02/22 00:47:34;;;;;;;8.20;1.50;;;12.20;72.30;;;;;;5094039;28;20448;-70
2024/02/22 00:50:04;;;;;;;7.97;1.63;;;12.20;72.30;;;;;;5094710;28;20459;-71
2024/02/22 00:52:32;;;;;;;7.40;1.40;;;12.20;72.80;;;;;;5094425;28;20871;-71
2024/02/22 00:55:02;;;;;;;8.60;2.10;;;12.20;73.60;;;;;;5106287;28;20493;-71
2024/02/22 00:57:30;;;;;;;10.43;1.73;;;12.10;73.60;;;;;;5086581;28;20445;-70
2024/02/22 00:59:57;;;;;;;7.33;1.30;;;12.10;74.30;;;;;;5091360;28;20475;-69
2024/02/22 01:02:26;;;;;;;10.03;1.70;;;12.10;74.40;;;;;;5097264;28;20942;-69
2024/02/22 01:04:54;;;;;;;7.90;2.23;;;12.10;75.00;;;;;;5094049;28;20465;-70
2024/02/22 01:07:24;;;;;;;7.40;1.73;;;12.00;75.50;;;;;;5106069;28;20454;-71
2024/02/22 01:09:52;;;;;;;6.30;1.03;;;12.00;75.80;;;;;;5089968;28;20560;-72
2024/02/22 01:12:20;;;;;;;8.10;1.50;;;12.00;76.30;;;;;;5094321;28;20935;-70
2024/02/22 01:14:48;;;;;;;6.70;1.33;;;11.90;76.60;;;;;;5094103;28;20861;-70
2024/02/22 01:17:16;;;;;;;7.07;1.30;;;11.90;77.20;;;;;;5089640;28;20500;-70
2024/02/22 01:19:45;;;;;;;7.70;1.43;;;11.90;77.90;;;;;;5087632;28;20878;-71
2024/02/22 01:22:13;;;;;;;7.53;1.60;;;11.80;78.40;;;;;;5104763;28;20530;-71
2024/02/22 01:24:42;;;;;;;7.63;1.10;;;11.80;78.90;;;;;;5087129;28;20476;-70
2024/02/22 01:27:10;;;;;;;8.20;1.67;;;11.80;80.00;;;;;;5105004;28;21000;-69
2024/02/22 01:29:41;;;;;;;6.57;1.40;;;11.80;80.20;;;;;;5104398;28;20536;-68
2024/02/22 01:32:10;;;;;;;6.87;1.60;;;11.70;80.50;;;;;;5106421;28;20433;-69
2024/02/22 01:34:38;;;;;;;6.30;1.10;;;11.70;81.30;;;;;;5103956;28;20466;-69
2024/02/22 01:37:06;;;;;;;7.50;1.70;;;11.70;81.60;;;;;;5105873;28;20452;-69
2024/02/22 01:39:34;;;;;;;8.90;1.73;;;11.70;82.10;;;;;;5104687;28;20927;-71
2024/02/22 01:42:04;;;;;;;6.43;1.13;;;11.60;82.90;;;;;;5106067;28;20522;-69
2024/02/22 01:44:32;;;;;;;7.27;1.37;;;11.60;83.10;;;;;;5105882;28;20457;-71
2024/02/22 01:47:00;;;;;;;7.53;1.40;;;11.60;83.50;;;;;;5106234;28;20807;-71
2024/02/22 01:49:28;;;;;;;6.97;1.53;;;11.50;83.70;;;;;;5106365;28;20445;-70
2024/02/22 01:52:00;;;;;;;6.93;1.27;;;11.50;84.00;;;;;;5103407;28;20452;-70
2024/02/22 01:54:28;;;;;;;7.20;1.20;;;11.50;84.80;;;;;;5105471;28;20505;-69
2024/02/22 01:56:56;;;;;;;6.47;1.07;;;11.50;85.30;;;;;;5103583;28;20550;-70
2024/02/22 01:59:26;;;;;;;6.83;1.37;;;11.50;85.60;;;;;;5105081;28;20927;-71
2024/02/22 02:01:55;;;;;;;7.10;1.43;;;11.50;86.00;;;;;;5104858;28;20481;-71
2024/02/22 02:04:24;;;;;;;7.23;1.30;;;11.50;86.70;;;;;;5106301;28;20807;-71
2024/02/22 02:06:52;;;;;;;7.47;1.73;;;11.40;86.70;;;;;;5105999;28;20886;-70
2024/02/22 02:09:20;;;;;;;7.90;1.10;;;11.40;87.60;;;;;;5104318;28;20452;-70
2024/02/22 02:11:48;;;;;;;6.50;1.13;;;11.40;87.90;;;;;;5104166;28;20445;-70
2024/02/22 02:14:16;;;;;;;6.43;1.20;;;11.40;88.60;;;;;;5105720;28;21101;-70
2024/02/22 02:16:46;;;;;;;6.33;1.07;;;11.30;89.10;;;;;;5106106;28;20441;-71
2024/02/22 02:19:19;;;;;;;6.50;1.10;;;11.30;90.00;;;;;;5105271;28;20445;-71
2024/02/22 02:21:59;;;;;;;6.27;0.90;;;11.30;90.20;;;;;;5109855;28;20484;-70
2024/02/22 02:24:33;;;;;;;7.30;1.30;;;11.30;90.50;;;;;;5109321;28;20840;-71
2024/02/22 02:27:03;;;;;;;6.50;1.10;;;11.30;90.40;;;;;;5108570;28;20443;-70
2024/02/22 02:29:31;;;;;;;7.30;1.27;;;11.30;90.50;;;;;;5110877;28;20475;-72
2024/02/22 02:31:59;;;;;;;6.70;1.50;;;11.30;90.60;;;;;;5108958;28;20425;-71
2024/02/22 02:34:27;;;;;;;7.80;1.00;;;11.30;90.70;;;;;;5108427;28;20458;-72
2024/02/22 02:36:55;;;;;;;6.93;1.20;;;11.30;91.30;;;;;;5108883;28;20440;-71
2024/02/22 02:39:23;;;;;;;6.90;0.83;;;11.20;91.10;;;;;;5109956;28;20501;-69
2024/02/22 02:41:51;;;;;;;6.10;1.17;;;11.20;91.20;;;;;;5109231;28;20480;-71
2024/02/22 02:44:21;;;;;;;6.83;1.20;;;11.20;91.30;;;;;;5109693;28;21740;-69
2024/02/22 02:46:49;;;;;;;7.63;1.20;;;11.20;91.40;;;;;;5109965;28;21209;-70
2024/02/22 02:49:17;;;;;;;6.80;0.90;;;11.20;91.60;;;;;;5108435;28;21004;-71
2024/02/22 02:51:47;;;;;;;6.63;1.10;;;11.20;91.60;;;;;;5109170;28;20539;-70
2024/02/22 02:54:15;;;;;;;6.77;0.83;;;11.20;91.90;;;;;;5107923;28;20473;-70
2024/02/22 02:56:43;;;;;;;6.00;0.70;;;11.20;91.90;;;;;;5108936;28;20445;-69
2024/02/22 02:59:11;;;;;;;6.50;0.93;;;11.10;92.40;;;;;;5107671;28;21097;-69
2024/02/22 03:01:47;;;;;;;6.30;1.00;;;11.10;92.30;;;;;;5106895;28;20584;-70
2024/02/22 03:04:16;;;;;;;6.70;0.90;;;11.10;92.70;;;;;;5110171;28;20444;-70
2024/02/22 03:06:44;;;;;;;6.30;0.90;;;11.10;92.90;;;;;;5109754;28;20459;-71
2024/02/22 03:09:13;;;;;;;6.83;0.90;;;11.00;93.20;;;;;;5109831;28;20455;-69
2024/02/22 03:11:41;;;;;;;6.30;0.83;;;11.00;93.60;;;;;;5106781;28;20440;-71
2024/02/22 03:14:09;;;;;;;6.30;0.70;;;11.00;93.90;;;;;;5109794;28;20798;-71
2024/02/22 03:16:38;;;;;;;6.20;0.70;;;11.00;94.20;;;;;;5104696;28;20593;-69
2024/02/22 03:19:09;;;;;;;7.17;1.10;;;11.00;94.50;;;;;;5096329;28;20480;-70
2024/02/22 03:21:38;;;;;;;6.70;1.00;;;10.90;95.30;;;;;;5089248;28;20879;-70
2024/02/22 03:24:07;;;;;;;6.57;0.90;;;10.80;96.10;;;;;;5108288;28;20441;-69
2024/02/22 03:26:36;;;;;;;6.40;0.80;;;10.70;97.00;;;;;;5102310;28;21015;-70
2024/02/22 03:29:04;;;;;;;6.40;0.90;;;10.70;97.50;;;;;;5109494;28;20495;-70
2024/02/22 03:31:33;;;;;;;6.83;1.00;;;10.70;98.20;;;;;;5108239;28;20445;-70
2024/02/22 03:34:02;;;;;;;6.10;0.90;;;10.70;98.40;;;;;;5100847;28;20452;-72
2024/02/22 03:36:32;;;;;;;6.10;0.77;;;10.70;98.70;;;;;;5088851;28;20990;-71
2024/02/22 03:39:02;;;;;;;7.33;0.90;;;10.70;98.90;;;;;;5096506;28;20433;-71
2024/02/22 03:41:30;;;;;;;6.80;0.90;;;10.70;98.80;;;;;;5101250;28;20948;-71
2024/02/22 03:43:59;;;;;;;6.40;1.20;;;10.80;99.00;;;;;;5108946;28;20471;-72
2024/02/22 03:46:29;;;;;;;6.40;1.10;;;10.80;99.50;;;;;;5099723;28;20472;-70
2024/02/22 03:48:57;;;;;;;6.93;1.00;;;10.80;99.40;;;;;;5089089;28;20449;-72
2024/02/22 03:51:25;;;;;;;6.23;0.80;;;10.80;99.40;;;;;;5109400;28;20486;-71
2024/02/22 03:54:02;;;;;;;5.90;0.60;;;10.90;99.80;;;;;;5108835;28;20443;-70
2024/02/22 03:56:33;;;;;;;6.07;0.87;;;10.80;99.90;;;;;;5101268;28;20880;-72
2024/02/22 03:59:01;;;;;;;7.07;1.00;;;10.60;99.90;;;;;;5088472;28;20446;-70
2024/02/22 04:01:30;;;;;;;6.00;0.97;;;10.40;99.90;;;;;;5095698;28;21132;-70
2024/02/22 04:03:58;;;;;;;6.40;1.00;;;10.30;99.90;;;;;;5088211;28;20445;-70
2024/02/22 04:06:26;;;;;;;6.50;1.20;;;10.10;99.90;;;;;;5091502;28;20465;-71
2024/02/22 04:08:57;;;;;;;6.83;1.30;;;10.00;99.90;;;;;;5094307;28;20455;-70
2024/02/22 04:11:26;;;;;;;6.90;1.00;;;9.90;99.90;;;;;;5088703;28;20444;-70
2024/02/22 04:13:54;;;;;;;6.37;1.13;;;9.80;99.90;;;;;;5088504;28;20524;-70
2024/02/22 04:16:22;;;;;;;7.37;0.93;;;9.70;99.90;;;;;;5096364;28;20481;-70
2024/02/22 04:18:50;;;;;;;6.50;1.10;;;9.70;99.90;;;;;;5108624;28;20453;-70
2024/02/22 04:21:18;;;;;;;6.77;1.20;;;9.60;99.90;;;;;;5105957;28;20444;-70
2024/02/22 04:23:46;;;;;;;6.27;1.00;;;9.60;99.90;;;;;;5088053;28;20561;-71
2024/02/22 04:26:14;;;;;;;6.90;1.30;;;9.60;99.90;;;;;;5095446;28;20514;-71
2024/02/22 04:28:43;;;;;;;6.63;1.00;;;9.60;99.90;;;;;;5093920;28;20469;-71
2024/02/22 04:31:11;;;;;;;8.30;1.10;;;9.60;99.90;;;;;;5108157;28;20531;-71
2024/02/22 04:33:40;;;;;;;6.40;1.00;;;9.60;99.90;;;;;;5108172;28;20452;-70
2024/02/22 04:36:09;;;;;;;6.33;1.00;;;9.60;99.90;;;;;;5108364;28;20637;-70
2024/02/22 04:38:38;;;;;;;6.30;0.93;;;9.60;99.90;;;;;;5094990;28;20455;-69
2024/02/22 04:41:07;;;;;;;6.83;1.00;;;9.60;99.90;;;;;;5089035;28;20459;-69
2024/02/22 04:43:35;;;;;;;7.10;1.10;;;9.60;99.90;;;;;;5087571;28;20989;-69
2024/02/22 04:46:04;;;;;;;6.60;1.30;;;9.60;99.90;;;;;;5088154;28;20480;-69
2024/02/22 04:48:32;;;;;;;7.73;1.17;;;9.50;99.90;;;;;;5099760;28;20494;-70
2024/02/22 04:51:01;;;;;;;6.60;1.40;;;9.50;99.90;;;;;;5107598;28;20471;-71
2024/02/22 04:53:29;;;;;;;6.40;1.00;;;9.50;99.90;;;;;;5107964;28;20539;-70
2024/02/22 04:55:57;;;;;;;7.03;1.20;;;9.50;99.90;;;;;;5108083;28;20876;-69
2024/02/22 04:58:25;;;;;;;6.60;1.20;;;9.50;99.90;;;;;;5104837;28;20447;-69
2024/02/22 05:00:53;;;;;;;7.30;1.30;;;9.50;99.90;;;;;;5098895;28;20864;-69
2024/02/22 05:03:23;;;;;;;6.83;0.97;;;9.50;99.90;;;;;;5105939;28;21044;-70
2024/02/22 05:05:51;;;;;;;6.40;1.10;;;9.50;99.90;;;;;;5107491;28;20471;-70
2024/02/22 05:08:19;;;;;;;8.10;1.53;;;9.50;99.90;;;;;;5090809;28;20475;-71
2024/02/22 05:10:47;;;;;;;7.20;1.37;;;9.40;99.90;;;;;;5094805;28;20446;-70
2024/02/22 05:13:15;;;;;;;7.80;1.57;;;9.40;99.90;;;;;;5107272;28;20640;-70
2024/02/22 05:15:43;;;;;;;6.60;1.10;;;9.40;99.90;;;;;;5107700;28;20833;-70
2024/02/22 05:18:11;;;;;;;6.80;1.10;;;9.30;99.90;;;;;;5104144;28;20439;-70
2024/02/22 05:20:40;;;;;;;6.90;1.10;;;9.30;99.90;;;;;;5096808;28;20542;-70
2024/02/22 05:23:09;;;;;;;6.67;1.30;;;9.30;99.90;;;;;;5106672;28;20491;-70
2024/02/22 05:25:38;;;;;;;7.73;1.27;;;9.20;99.90;;;;;;5107122;28;20475;-69
2024/02/22 05:28:08;;;;;;;6.80;1.03;;;9.20;99.90;;;;;;5107145;28;20471;-69
2024/02/22 05:30:36;;;;;;;7.10;0.90;;;9.20;99.90;;;;;;5086792;28;20450;-70
2024/02/22 05:33:05;;;;;;;8.17;1.10;;;9.20;99.90;;;;;;5087658;28;20444;-72
2024/02/22 05:35:33;;;;;;;6.80;1.23;;;9.20;99.90;;;;;;5098876;28;20465;-71
2024/02/22 05:38:02;;;;;;;6.43;0.97;;;9.20;99.90;;;;;;5107125;28;20647;-71
2024/02/22 05:40:30;;;;;;;6.70;1.10;;;9.20;99.90;;;;;;5105493;28;20437;-70
2024/02/22 05:42:59;;;;;;;6.40;0.90;;;9.20;99.90;;;;;;5099273;28;20487;-70
2024/02/22 05:45:42;;;;;;;6.20;0.80;;;9.20;99.90;;;;;;5099468;28;20811;-71
2024/02/22 05:48:10;;;;;;;6.37;1.03;;;9.20;99.90;;;;;;5107730;28;20444;-70
2024/02/22 05:50:38;;;;;;;6.60;1.03;;;9.20;99.90;;;;;;5106626;28;20598;-73
2024/02/22 05:53:09;;;;;;;7.87;1.33;;;9.20;99.90;;;;;;5105592;28;20445;-74
2024/02/22 05:55:37;;;;;;;7.73;1.20;;;9.10;99.90;;;;;;5095390;28;20470;-72
2024/02/22 05:58:05;;;;;;;6.97;1.30;;;9.10;99.90;;;;;;5095963;28;20580;-72
2024/02/22 06:00:33;;;;;;;6.67;1.03;;;9.10;99.90;;;;;;5098724;28;20445;-70
2024/02/22 06:03:01;;;;;;;7.00;1.37;;;9.10;99.90;;;;;;5106453;28;20545;-71
2024/02/22 06:05:34;;;;;;;6.87;1.10;;;9.10;99.90;;;;;;5106182;28;20598;-71
2024/02/22 06:08:03;;;;;;;6.60;1.10;;;9.10;99.90;;;;;;5095659;28;20446;-70
2024/02/22 06:10:32;;;;;;;6.77;1.17;;;9.10;99.90;;;;;;5086192;28;20451;-71
2024/02/22 06:13:00;;;;;;;6.97;1.10;;;9.10;99.90;;;;;;5103796;28;20443;-70
2024/02/22 06:15:28;;;;;;;6.70;1.30;;;9.10;99.90;;;;;;5106811;28;20454;-70
2024/02/22 06:17:56;;;;;;;6.80;1.07;;;9.10;99.90;;;;;;5107695;28;20530;-70
2024/02/22 06:20:24;;;;;;;7.20;1.23;;;9.10;99.90;;;;;;5107483;28;20441;-70
2024/02/22 06:22:52;;;;;;;7.77;1.03;;;9.10;99.90;;;;;;5104873;28;20448;-70
2024/02/22 06:25:20;;;;;;;7.23;1.40;;;9.10;99.90;;;;;;5103706;28;20661;-69
2024/02/22 06:27:50;;;;;;;6.83;1.07;;;9.10;99.90;;;;;;5107595;28;20559;-70
2024/02/22 06:30:18;;;;;;;6.97;1.10;;;9.10;99.90;;;;;;5107364;28;20448;-70
2024/02/22 06:32:46;;;;;;;6.70;1.20;;;9.10;99.90;;;;;;5107481;28;20450;-70
2024/02/22 06:35:14;;;;;;;7.00;1.17;;;9.10;99.90;;;;;;5106882;28;20458;-70
2024/02/22 06:37:44;;;;;;;7.27;1.33;;;9.20;99.90;;;;;;5107038;28;20888;-70
2024/02/22 06:40:14;;;;;;;6.90;1.33;;;9.20;99.90;;;;;;5097378;28;20450;-69
2024/02/22 06:42:42;;;;;;;7.53;1.50;;;9.20;99.90;;;;;;5088670;28;20447;-70
2024/02/22 06:45:11;;;;;;;6.90;1.07;;;9.20;99.90;;;;;;5098713;28;20490;-70
2024/02/22 06:47:39;;;;;;;8.93;1.30;;;9.20;99.90;;;;;;5107220;28;20449;-71
2024/02/22 06:50:09;;;;;;;6.37;1.07;;;9.20;99.90;;;;;;5107532;28;20543;-71
2024/02/22 06:52:37;;;;;;;7.47;1.23;;;9.30;99.90;;;;;;5107019;28;20982;-71
2024/02/22 06:55:07;;;;;;;6.90;1.27;;;9.30;99.90;;;;;;5107172;28;20474;-71
2024/02/22 06:57:35;;;;;;;7.40;1.30;;;9.30;99.90;;;;;;5099385;28;20926;-72
2024/02/22 07:00:04;;;;;;;6.47;1.03;;;9.30;99.90;;;;;;5107598;28;20443;-71
2024/02/22 07:02:33;;;;;;;7.17;1.33;;;9.30;99.90;;;;;;5095055;28;20563;-72
2024/02/22 07:05:01;;;;;;;6.70;1.10;;;9.30;99.90;;;;;;5098352;28;20506;-71
2024/02/22 07:07:29;;;;;;;7.57;1.17;;;9.30;99.90;;;;;;5109579;28;20457;-72
2024/02/22 07:09:57;;;;;;;7.03;1.40;;;9.30;99.90;;;;;;5106777;28;20538;-71
2024/02/22 07:12:25;;;;;;;6.70;1.10;;;9.30;99.90;;;;;;5091075;28;20452;-72
2024/02/22 07:14:54;;;;;;;6.97;1.23;;;9.30;99.90;;;;;;5090417;28;20486;-71
2024/02/22 07:17:21;;;;;;;6.80;1.30;;;9.30;99.90;;;;;;5090096;28;21085;-72
2024/02/22 07:19:54;;;;;;;7.23;1.30;;;9.40;99.90;;;;;;5100276;28;20869;-71
2024/02/22 07:22:22;;;;;;;8.23;1.73;;;9.30;99.90;;;;;;5094906;28;20442;-71
2024/02/22 07:24:50;;;;;;;7.10;1.30;;;9.30;99.90;;;;;;5091153;28;20494;-71
2024/02/22 07:27:18;;;;;;;9.00;1.87;;;9.40;99.90;;;;;;5105036;28;20463;-71
2024/02/22 07:29:46;;;;;;;7.63;1.80;;;9.30;99.90;;;;;;5110398;28;20451;-71
2024/02/22 07:32:14;;;;;;;9.53;2.00;;;9.40;99.90;;;;;;5089950;28;20452;-71
2024/02/22 07:34:42;;;;;;;7.83;1.47;;;9.40;99.90;;;;;;5090003;28;20510;-71
2024/02/22 07:37:12;;;;;;;9.00;2.40;;;9.30;99.90;;;;;;5102587;28;20476;-72
2024/02/22 07:39:39;;;;;;;12.87;2.80;;;9.40;99.90;;;;;;5110556;28;20960;-71
2024/02/22 07:42:07;;;;;;;9.17;1.90;;;9.40;99.90;;;;;;5109259;28;20452;-71
2024/02/22 07:44:35;;;;;;;9.33;1.80;;;9.40;99.90;;;;;;5102033;28;20492;-71
2024/02/22 07:47:03;;;;;;;8.13;2.60;;;9.40;99.90;;;;;;5110108;28;20442;-72
2024/02/22 07:49:31;;;;;;;8.20;1.97;;;9.40;99.90;;;;;;5108963;28;20435;-71
2024/02/22 07:51:59;;;;;;;8.53;1.60;;;9.40;99.90;;;;;;5106929;28;20482;-72
2024/02/22 07:54:29;;;;;;;9.63;2.27;;;9.40;99.90;;;;;;5098890;28;20547;-72
2024/02/22 07:56:57;;;;;;;8.77;2.30;;;9.40;99.90;;;;;;5091969;28;20513;-72
2024/02/22 07:59:25;;;;;;;9.17;2.77;;;9.40;99.90;;;;;;5107439;28;20450;-72
2024/02/22 08:01:53;;;;;;;8.40;2.40;;;9.40;99.90;;;;;;5109345;28;20451;-72
2024/02/22 08:04:27;;;;;;;10.37;2.20;;;9.50;99.90;;;;;;5107566;28;20710;-72
2024/02/22 08:06:55;;;;;;;8.13;1.70;;;9.50;99.90;;;;;;5090466;28;20805;-72
2024/02/22 08:09:26;;;;;;;7.30;2.27;;;9.50;99.90;;;;;;5092222;28;20458;-72
2024/02/22 08:11:55;;;;;;;7.10;1.60;;;9.50;99.90;;;;;;5107576;28;20844;-72
2024/02/22 08:14:23;;;;;;;10.63;1.70;;;9.50;99.90;;;;;;5106694;28;20957;-70
2024/02/22 08:16:51;;;;;;;7.13;1.37;;;9.50;99.90;;;;;;5106236;28;20503;-71
2024/02/22 08:19:19;;;;;;;7.20;1.23;;;9.60;99.90;;;;;;5108877;28;20447;-71
2024/02/22 08:21:47;;;;;;;7.17;1.40;;;9.60;99.90;;;;;;5103915;28;20439;-70
2024/02/22 08:24:15;;;;;;;7.57;1.30;;;9.50;99.90;;;;;;5094432;28;20843;-71
2024/02/22 08:26:43;;;;;;;6.50;1.00;;;9.50;99.90;;;;;;5089055;28;20550;-70
2024/02/22 08:29:12;;;;;;;6.70;1.00;;;9.60;99.90;;;;;;5092122;28;20459;-71
2024/02/22 08:31:40;;;;;;;7.20;1.10;;;9.60;99.90;;;;;;5109097;28;20453;-71
2024/02/22 08:34:08;;;;;;;7.73;1.00;;;9.60;99.90;;;;;;5108578;28;20455;-70
2024/02/22 08:36:37;;;;;;;6.70;0.97;;;9.60;99.90;;;;;;5100972;28;21377;-71
2024/02/22 08:39:05;;;;;;;6.90;1.00;;;9.60;99.90;;;;;;5109652;28;20447;-70
2024/02/22 08:41:33;;;;;;;7.10;1.07;;;9.60;99.90;;;;;;5109060;28;20450;-71
2024/02/22 08:44:01;;;;;;;7.30;0.87;;;9.60;99.90;;;;;;5109315;28;20453;-71
2024/02/22 08:46:31;;;;;;;6.50;0.70;;;9.70;99.90;;;;;;5108783;28;20834;-69
2024/02/22 08:49:00;;;;;;;7.03;0.83;;;9.70;99.90;;;;;;5109178;28;20858;-70
2024/02/22 08:51:28;;;;;;;7.70;0.80;;;9.70;99.90;;;;;;5109186;28;20440;-70
2024/02/22 08:53:57;;;;;;;6.27;0.70;;;9.70;99.90;;;;;;5109048;28;20458;-70
2024/02/22 08:56:25;;;;;;;6.20;0.67;;;9.80;99.90;;;;;;5108781;28;20554;-70
2024/02/22 08:58:54;;;;;;;6.17;0.63;;;9.80;99.90;;;;;;5109114;28;20804;-71
2024/02/22 09:01:23;;;;;;;5.97;0.40;;;9.80;99.90;;;;;;5090332;28;20444;-70
2024/02/22 09:03:53;;;;;;;6.03;0.70;;;9.80;99.90;;;;;;5088681;28;20449;-70
2024/02/22 09:06:21;;;;;;;6.40;0.50;;;9.90;99.90;;;;;;5102471;28;20486;-68
2024/02/22 09:08:50;;;;;;;6.60;0.80;;;10.00;99.90;;;;;;5109198;28;20936;-71
2024/02/22 09:11:18;;;;;;;6.50;0.83;;;10.00;99.90;;;;;;5109193;28;20547;-71
2024/02/22 09:13:46;;;;;;;7.13;0.70;;;10.00;99.90;;;;;;5109503;28;20456;-71
2024/02/22 09:16:14;;;;;;;6.60;0.70;;;10.10;99.90;;;;;;5108519;28;20991;-71
2024/02/22 09:18:42;;;;;;;6.40;0.60;;;10.10;99.90;;;;;;5108731;28;20446;-70
2024/02/22 09:21:11;;;;;;;6.10;0.50;;;10.20;99.90;;;;;;5108541;28;20451;-71
2024/02/22 09:23:41;;;;;;;6.00;0.50;;;10.30;99.90;;;;;;5108719;28;20854;-71
2024/02/22 09:26:14;;;;;;;6.20;0.53;;;10.30;99.90;;;;;;5108351;28;20488;-71
2024/02/22 09:28:42;;;;;;;6.53;0.60;;;10.30;99.90;;;;;;5107880;28;20962;-71
2024/02/22 09:31:10;;;;;;;7.13;0.83;;;10.30;99.90;;;;;;5108054;28;20517;-70
2024/02/22 09:33:40;;;;;;;6.07;0.53;;;10.30;99.90;;;;;;5108565;28;20457;-71
2024/02/22 09:36:09;;;;;;;6.20;0.60;;;10.40;99.90;;;;;;5108728;28;20468;-70
2024/02/22 09:38:39;;;;;;;6.20;0.60;;;10.40;99.90;;;;;;5108320;28;20451;-70
2024/02/22 09:41:09;;;;;;;6.20;0.40;;;10.50;99.90;;;;;;5108034;28;20488;-71
2024/02/22 09:43:37;;;;;;;6.00;0.57;;;10.60;99.90;;;;;;5108770;28;20449;-71
2024/02/22 09:46:05;;;;;;;5.93;0.40;;;10.60;99.90;;;;;;5107960;28;20488;-71
2024/02/22 09:48:33;;;;;;;6.87;0.73;;;10.60;99.90;;;;;;5088343;28;20977;-71
2024/02/22 09:51:04;;;;;;;6.77;0.67;;;10.50;99.90;;;;;;5087632;28;20453;-71
2024/02/22 09:53:32;;;;;;;6.33;0.60;;;10.50;99.90;;;;;;5088034;28;21013;-71
2024/02/22 09:56:02;;;;;;;6.30;0.60;;;10.50;99.90;;;;;;5087741;28;20522;-71
2024/02/22 09:58:30;;;;;;;6.40;0.60;;;10.40;99.90;;;;;;5087802;28;20449;-70
2024/02/22 10:00:58;;;;;;;7.10;0.83;;;10.40;99.90;;;;;;5087682;28;20961;-70
2024/02/22 10:03:31;;;;;;;6.57;0.53;;;10.50;99.90;;;;;;5092205;28;20750;-71
2024/02/22 10:05:59;;;;;;;7.20;0.50;;;10.60;99.90;;;;;;5087678;28;20493;-71
2024/02/22 10:08:30;;;;;;;6.03;0.40;;;10.60;99.90;;;;;;5087188;28;20446;-69
2024/02/22 10:11:07;;;;;;;5.90;0.47;;;10.60;99.90;;;;;;5104203;28;20869;-70
2024/02/22 10:13:36;;;;;;;5.90;0.50;;;10.70;99.90;;;;;;5097060;28;20480;-71
2024/02/22 10:16:12;;;;;;;6.00;0.50;;;10.90;99.90;;;;;;5101854;28;20559;-71
2024/02/22 10:18:40;;;;;;;6.00;0.50;;;10.90;99.90;;;;;;5102603;28;20472;-71
2024/02/22 10:21:15;;;;;;;6.10;0.53;;;10.90;99.90;;;;;;5107779;28;20442;-71
2024/02/22 10:23:45;;;;;;;5.87;0.43;;;11.00;99.90;;;;;;5100550;28;20438;-71
2024/02/22 10:26:15;;;;;;;7.03;0.50;;;11.00;99.90;;;;;;5105442;28;20858;-71
2024/02/22 10:28:43;;;;;;;6.33;0.70;;;10.90;99.90;;;;;;5107689;28;20533;-71
2024/02/22 10:31:12;;;;;;;6.00;0.50;;;11.00;99.90;;;;;;5107763;28;20965;-72
2024/02/22 10:33:40;;;;;;;6.63;0.50;;;11.00;99.90;;;;;;5101811;28;20869;-70
2024/02/22 10:36:09;;;;;;;6.20;0.73;;;11.00;99.90;;;;;;5105093;28;21056;-71
2024/02/22 10:38:39;;;;;;;5.80;0.33;;;11.10;99.90;;;;;;5097954;28;20456;-72
2024/02/22 10:41:10;;;;;;;7.63;0.67;;;11.20;99.90;;;;;;5102526;28;20456;-71
2024/02/22 10:43:41;;;;;;;5.90;0.40;;;11.30;99.90;;;;;;5102374;28;20463;-71
2024/02/22 10:46:10;;;;;;;6.43;0.60;;;11.30;99.90;;;;;;5110141;28;20494;-71
2024/02/22 10:48:45;;;;;;;6.17;0.53;;;11.30;99.90;;;;;;5106478;28;20532;-71
2024/02/22 10:51:16;;;;;;;5.80;0.40;;;11.20;99.90;;;;;;5106506;28;20448;-72
2024/02/22 10:53:45;;;;;;;6.10;0.40;;;11.10;99.90;;;;;;5109858;28;20539;-71
2024/02/22 10:56:15;;;;;;;5.83;0.40;;;11.00;99.90;;;;;;5109530;28;20461;-71
2024/02/22 10:58:47;;;;;;;5.90;0.50;;;11.00;99.90;;;;;;5109614;28;20485;-71
2024/02/22 11:01:16;;;;;;;6.60;0.53;;;10.90;99.90;;;;;;5100300;28;21007;-70
2024/02/22 11:03:45;;;;;;;6.17;0.60;;;10.90;99.90;;;;;;5110580;28;20494;-71
2024/02/22 11:06:14;;;;;;;5.90;0.57;;;10.90;99.90;;;;;;5100883;28;20491;-71
2024/02/22 11:08:48;;;;;;;5.90;0.57;;;10.80;99.90;;;;;;5103111;28;20459;-71
2024/02/22 11:11:26;;;;;;;5.97;0.50;;;10.70;99.90;;;;;;5104006;28;20954;-71
2024/02/22 11:14:00;;;;;;;6.50;0.50;;;10.60;99.90;;;;;;5106987;28;20963;-71
2024/02/22 11:16:34;;;;;;;6.37;0.60;;;10.60;99.90;;;;;;5105327;28;20883;-70
2024/02/22 11:19:08;;;;;;;6.10;0.57;;;10.50;99.90;;;;;;5109074;28;20438;-71
2024/02/22 11:21:38;;;;;;;6.07;0.50;;;10.60;99.90;;;;;;5108942;28;20994;-71
2024/02/22 11:24:11;;;;;;;6.30;0.60;;;10.60;99.90;;;;;;5108507;28;20990;-72
2024/02/22 11:26:41;;;;;;;5.87;0.40;;;10.60;99.90;;;;;;5109009;28;20895;-72
2024/02/22 11:29:10;;;;;;;5.97;0.50;;;10.60;99.90;;;;;;5108357;28;20480;-72
2024/02/22 11:31:38;;;;;;;6.00;0.50;;;10.60;99.90;;;;;;5108814;28;20455;-72
2024/02/22 11:34:06;;;;;;;6.20;0.77;;;10.60;99.90;;;;;;5108023;28;20436;-71
2024/02/22 11:36:34;;;;;;;5.97;0.57;;;10.60;99.90;;;;;;5108696;28;20461;-71
2024/02/22 11:39:04;;;;;;;6.40;0.60;;;10.60;99.90;;;;;;5103920;28;20846;-71
2024/02/22 11:41:32;;;;;;;6.10;0.50;;;10.50;99.90;;;;;;5108256;28;20884;-71
2024/02/22 11:44:04;;;;;;;6.20;0.60;;;10.50;99.90;;;;;;5103383;28;20460;-71
2024/02/22 11:46:36;;;;;;;6.60;0.80;;;10.50;99.90;;;;;;5106058;28;20834;-71
2024/02/22 11:49:05;;;;;;;7.03;0.70;;;10.50;99.90;;;;;;5108450;28;20439;-71
2024/02/22 11:51:33;;;;;;;6.57;0.63;;;10.50;99.90;;;;;;5101495;28;20455;-71
2024/02/22 11:54:01;;;;;;;6.70;0.40;;;10.50;99.90;;;;;;5099159;28;20543;-71
2024/02/22 11:56:30;;;;;;;6.00;0.53;;;10.60;99.90;;;;;;5104268;28;20453;-71
2024/02/22 11:58:58;;;;;;;6.30;0.70;;;10.60;99.90;;;;;;5108360;28;20442;-72
2024/02/22 12:01:27;;;;;;;5.90;0.40;;;10.70;99.90;;;;;;5108208;28;20448;-70
2024/02/22 12:03:57;;;;;;;5.97;0.40;;;10.90;99.90;;;;;;5108216;28;20440;-70
2024/02/22 12:06:26;;;;;;;6.20;0.53;;;10.90;99.90;;;;;;5103598;28;20960;-61
2024/02/22 12:08:55;;;;;;;6.70;0.60;;;11.00;99.90;;;;;;5108283;28;20451;-61
2024/02/22 12:11:23;;;;;;;6.97;0.50;;;11.10;99.90;;;;;;5104517;28;20532;-59
2024/02/22 12:13:56;;;;;;;5.90;0.40;;;11.20;99.90;;;;;;5103458;28;21018;-60
2024/02/22 12:16:24;;;;;;;7.10;0.53;;;11.30;99.90;;;;;;5108307;28;20811;-61
2024/02/22 12:18:53;;;;;;;6.73;0.40;;;11.50;99.90;;;;;;5108116;28;20438;-62
2024/02/22 12:21:26;;;;;;;6.60;0.50;;;11.50;99.90;;;;;;5107690;28;20442;-64
2024/02/22 12:23:57;;;;;;;5.87;0.50;;;11.50;99.90;;;;;;5106584;28;20993;-61
2024/02/22 12:26:25;;;;;;;6.73;0.47;;;11.50;99.90;;;;;;5105375;28;20588;-61
2024/02/22 12:28:54;;;;;;;6.30;0.60;;;11.40;99.90;;;;;;5107686;28;20446;-61
2024/02/22 12:31:23;;;;;;;6.83;0.70;;;11.50;99.90;;;;;;5096961;28;20449;-63
2024/02/22 12:33:53;;;;;;;6.87;0.87;;;11.50;99.90;;;;;;5104000;28;20877;-62
2024/02/22 12:36:23;;;;;;;6.80;0.50;;;11.60;99.90;;;;;;5107647;28;20462;-61
2024/02/22 12:38:52;;;;;;;5.83;0.40;;;11.60;99.90;;;;;;5107981;28;20438;-61
2024/02/22 12:41:25;;;;;;;6.10;0.63;;;11.60;99.90;;;;;;5106529;28;20446;-65
2024/02/22 12:43:55;;;;;;;6.00;0.50;;;11.60;99.90;;;;;;5105156;28;20455;-60
2024/02/22 12:46:25;;;;;;;8.33;0.50;;;11.70;99.90;;;;;;5106042;28;21005;-64
2024/02/22 12:48:53;;;;;;;5.70;0.30;;;11.70;99.90;;;;;;5106669;28;20454;-64
2024/02/22 12:51:23;;;;;;;5.90;0.50;;;11.80;99.90;;;;;;5106625;28;20450;-64
2024/02/22 12:53:51;;;;;;;6.60;0.50;;;11.80;99.90;;;;;;5105983;28;20961;-66
2024/02/22 12:56:20;;;;;;;6.30;0.53;;;11.90;99.90;;;;;;5106929;28;20472;-63
2024/02/22 12:58:48;;;;;;;6.00;0.63;;;11.90;99.90;;;;;;5095619;28;20458;-64